sensor_id;sensor_type;location;lat;lon;timestamp;pressure;altitude;pressure_sealevel;temperature;humidity
54854;BME280;40747;49.480;8.658;2023-07-31T00:00:57;100261.50;;;19.58;70.71
54854;BME280;40747;49.480;8.658;2023-07-31T00:03:23;100258.28;;;19.53;70.95
54854;BME280;40747;49.480;8.658;2023-07-31T00:05:48;100258.72;;;19.46;70.96
54854;BME280;40747;49.480;8.658;2023-07-31T00:08:13;100259.16;;;19.53;71.30
54854;BME280;40747;49.480;8.658;2023-07-31T00:10:38;100264.91;;;19.47;71.11
54854;BME280;40747;49.480;8.658;2023-07-31T00:13:04;100255.81;;;19.49;71.48
54854;BME280;40747;49.480;8.658;2023-07-31T00:15:29;100255.19;;;19.46;70.60
54854;BME280;40747;49.480;8.658;2023-07-31T00:17:54;100257.31;;;19.54;72.30
54854;BME280;40747;49.480;8.658;2023-07-31T00:20:21;100249.72;;;19.47;72.88
54854;BME280;40747;49.480;8.658;2023-07-31T00:22:46;100246.91;;;19.23;73.57
54854;BME280;40747;49.480;8.658;2023-07-31T00:25:11;100248.13;;;19.32;72.20
54854;BME280;40747;49.480;8.658;2023-07-31T00:27:37;100247.38;;;19.17;72.22
54854;BME280;40747;49.480;8.658;2023-07-31T00:30:02;100255.59;;;19.27;72.74
54854;BME280;40747;49.480;8.658;2023-07-31T00:32:28;100253.78;;;19.27;72.04
54854;BME280;40747;49.480;8.658;2023-07-31T00:34:53;100254.63;;;19.28;73.76
54854;BME280;40747;49.480;8.658;2023-07-31T00:37:18;100248.97;;;19.20;72.59
54854;BME280;40747;49.480;8.658;2023-07-31T00:39:44;100256.22;;;19.18;72.55
54854;BME280;40747;49.480;8.658;2023-07-31T00:42:09;100252.25;;;19.10;73.10
54854;BME280;40747;49.480;8.658;2023-07-31T00:44:34;100249.38;;;19.13;73.25
54854;BME280;40747;49.480;8.658;2023-07-31T00:47:00;100245.09;;;18.98;73.80
54854;BME280;40747;49.480;8.658;2023-07-31T00:49:26;100243.63;;;19.07;74.73
54854;BME280;40747;49.480;8.658;2023-07-31T00:51:51;100241.88;;;18.93;73.44
54854;BME280;40747;49.480;8.658;2023-07-31T00:54:17;100240.47;;;19.00;75.24
54854;BME280;40747;49.480;8.658;2023-07-31T00:56:45;100237.25;;;18.95;73.57
54854;BME280;40747;49.480;8.658;2023-07-31T00:59:11;100215.84;;;18.82;74.96
54854;BME280;40747;49.480;8.658;2023-07-31T01:01:37;100223.56;;;18.87;74.85
54854;BME280;40747;49.480;8.658;2023-07-31T01:04:02;100223.00;;;18.81;73.58
54854;BME280;40747;49.480;8.658;2023-07-31T01:11:39;100217.28;;;18.88;73.64
54854;BME280;40747;49.480;8.658;2023-07-31T01:14:08;100218.69;;;18.93;73.64
54854;BME280;40747;49.480;8.658;2023-07-31T01:16:33;100212.50;;;18.93;75.10
54854;BME280;40747;49.480;8.658;2023-07-31T01:18:58;100223.19;;;18.78;74.37
54854;BME280;40747;49.480;8.658;2023-07-31T01:24:41;100215.97;;;18.80;74.05
54854;BME280;40747;49.480;8.658;2023-07-31T01:27:17;100220.22;;;18.70;74.69
54854;BME280;40747;49.480;8.658;2023-07-31T01:29:49;100209.03;;;18.78;74.20
54854;BME280;40747;49.480;8.658;2023-07-31T01:32:18;100218.63;;;18.80;74.45
54854;BME280;40747;49.480;8.658;2023-07-31T01:34:44;100212.09;;;18.72;75.31
54854;BME280;40747;49.480;8.658;2023-07-31T01:37:10;100210.88;;;18.63;74.10
54854;BME280;40747;49.480;8.658;2023-07-31T01:39:35;100207.28;;;18.64;75.62
54854;BME280;40747;49.480;8.658;2023-07-31T01:42:00;100202.19;;;18.74;75.02
54854;BME280;40747;49.480;8.658;2023-07-31T01:44:25;100209.31;;;18.73;74.06
54854;BME280;40747;49.480;8.658;2023-07-31T01:46:51;100208.19;;;18.77;73.88
54854;BME280;40747;49.480;8.658;2023-07-31T01:49:16;100200.91;;;18.79;74.00
54854;BME280;40747;49.480;8.658;2023-07-31T01:51:41;100210.63;;;18.80;75.10
54854;BME280;40747;49.480;8.658;2023-07-31T01:54:07;100199.00;;;18.81;73.81
54854;BME280;40747;49.480;8.658;2023-07-31T01:56:32;100196.41;;;18.67;74.29
54854;BME280;40747;49.480;8.658;2023-07-31T01:58:57;100200.69;;;18.70;75.44
54854;BME280;40747;49.480;8.658;2023-07-31T02:01:23;100189.25;;;18.67;74.05
54854;BME280;40747;49.480;8.658;2023-07-31T02:03:48;100197.38;;;18.66;74.26
54854;BME280;40747;49.480;8.658;2023-07-31T02:06:13;100199.63;;;18.72;74.98
54854;BME280;40747;49.480;8.658;2023-07-31T02:08:39;100193.97;;;18.77;74.85
54854;BME280;40747;49.480;8.658;2023-07-31T02:11:04;100192.47;;;18.73;74.06
54854;BME280;40747;49.480;8.658;2023-07-31T02:13:30;100185.53;;;18.70;76.04
54854;BME280;40747;49.480;8.658;2023-07-31T02:15:55;100185.31;;;18.73;74.37
54854;BME280;40747;49.480;8.658;2023-07-31T02:18:22;100173.69;;;18.74;74.26
54854;BME280;40747;49.480;8.658;2023-07-31T02:20:53;100174.22;;;18.79;75.61
54854;BME280;40747;49.480;8.658;2023-07-31T02:23:19;100171.63;;;18.65;74.11
54854;BME280;40747;49.480;8.658;2023-07-31T02:25:45;100169.09;;;18.76;74.69
54854;BME280;40747;49.480;8.658;2023-07-31T02:28:11;100158.84;;;18.70;74.14
54854;BME280;40747;49.480;8.658;2023-07-31T02:30:36;100161.63;;;18.69;75.61
54854;BME280;40747;49.480;8.658;2023-07-31T02:33:01;100163.41;;;18.68;74.59
54854;BME280;40747;49.480;8.658;2023-07-31T02:35:27;100166.09;;;18.68;74.98
54854;BME280;40747;49.480;8.658;2023-07-31T02:37:52;100169.09;;;18.63;74.70
54854;BME280;40747;49.480;8.658;2023-07-31T02:40:17;100166.84;;;18.70;76.23
54854;BME280;40747;49.480;8.658;2023-07-31T02:42:45;100161.63;;;18.69;76.21
54854;BME280;40747;49.480;8.658;2023-07-31T02:45:11;100163.50;;;18.54;74.97
54854;BME280;40747;49.480;8.658;2023-07-31T02:47:36;100158.06;;;18.55;74.28
54854;BME280;40747;49.480;8.658;2023-07-31T02:50:02;100165.22;;;18.55;75.99
54854;BME280;40747;49.480;8.658;2023-07-31T02:52:28;100159.97;;;18.53;76.00
54854;BME280;40747;49.480;8.658;2023-07-31T02:54:53;100159.75;;;18.56;75.52
54854;BME280;40747;49.480;8.658;2023-07-31T02:57:19;100162.31;;;18.58;76.91
54854;BME280;40747;49.480;8.658;2023-07-31T02:59:44;100151.31;;;18.49;75.03
54854;BME280;40747;49.480;8.658;2023-07-31T03:02:09;100166.28;;;18.52;75.19
54854;BME280;40747;49.480;8.658;2023-07-31T03:04:35;100159.97;;;18.53;76.65
54854;BME280;40747;49.480;8.658;2023-07-31T03:07:00;100162.66;;;18.53;76.63
54854;BME280;40747;49.480;8.658;2023-07-31T03:09:25;100156.44;;;18.53;75.96
54854;BME280;40747;49.480;8.658;2023-07-31T03:11:50;100155.28;;;18.57;76.82
54854;BME280;40747;49.480;8.658;2023-07-31T03:14:16;100160.28;;;18.48;77.19
54854;BME280;40747;49.480;8.658;2023-07-31T03:16:41;100161.13;;;18.49;75.93
54854;BME280;40747;49.480;8.658;2023-07-31T03:19:07;100159.22;;;18.51;75.26
54854;BME280;40747;49.480;8.658;2023-07-31T03:21:32;100163.28;;;18.57;75.65
54854;BME280;40747;49.480;8.658;2023-07-31T03:23:57;100158.38;;;18.50;74.45
54854;BME280;40747;49.480;8.658;2023-07-31T03:26:23;100157.09;;;18.56;75.05
54854;BME280;40747;49.480;8.658;2023-07-31T03:28:48;100159.22;;;18.51;75.89
54854;BME280;40747;49.480;8.658;2023-07-31T03:31:14;100160.13;;;18.37;75.23
54854;BME280;40747;49.480;8.658;2023-07-31T03:33:40;100162.19;;;18.46;75.80
54854;BME280;40747;49.480;8.658;2023-07-31T03:36:05;100165.91;;;18.44;76.70
54854;BME280;40747;49.480;8.658;2023-07-31T03:38:31;100157.47;;;18.37;75.54
54854;BME280;40747;49.480;8.658;2023-07-31T03:40:56;100162.06;;;18.35;76.18
54854;BME280;40747;49.480;8.658;2023-07-31T03:43:23;100157.34;;;18.39;76.99
54854;BME280;40747;49.480;8.658;2023-07-31T03:45:50;100154.41;;;18.43;75.99
54854;BME280;40747;49.480;8.658;2023-07-31T03:48:15;100148.31;;;18.41;76.96
54854;BME280;40747;49.480;8.658;2023-07-31T03:50:41;100144.69;;;18.42;77.67
54854;BME280;40747;49.480;8.658;2023-07-31T03:53:06;100147.84;;;18.34;76.81
54854;BME280;40747;49.480;8.658;2023-07-31T03:55:32;100144.63;;;18.29;76.27
54854;BME280;40747;49.480;8.658;2023-07-31T03:57:57;100141.88;;;18.31;77.13
54854;BME280;40747;49.480;8.658;2023-07-31T04:00:22;100148.66;;;18.22;77.00
54854;BME280;40747;49.480;8.658;2023-07-31T04:02:48;100157.53;;;18.23;77.69
54854;BME280;40747;49.480;8.658;2023-07-31T04:05:13;100148.66;;;18.22;76.04
54854;BME280;40747;49.480;8.658;2023-07-31T04:07:38;100148.16;;;18.30;76.20
54854;BME280;40747;49.480;8.658;2023-07-31T04:10:04;100151.03;;;18.27;75.83
54854;BME280;40747;49.480;8.658;2023-07-31T04:12:29;100153.47;;;18.30;76.39
54854;BME280;40747;49.480;8.658;2023-07-31T04:14:54;100148.81;;;18.33;76.11
54854;BME280;40747;49.480;8.658;2023-07-31T04:17:20;100144.94;;;18.25;75.92
54854;BME280;40747;49.480;8.658;2023-07-31T04:19:45;100159.03;;;18.27;76.04
54854;BME280;40747;49.480;8.658;2023-07-31T04:22:10;100162.84;;;18.23;76.56
54854;BME280;40747;49.480;8.658;2023-07-31T04:24:36;100165.19;;;18.27;76.87
54854;BME280;40747;49.480;8.658;2023-07-31T04:27:01;100156.47;;;18.25;76.19
54854;BME280;40747;49.480;8.658;2023-07-31T04:29:26;100159.78;;;18.29;75.90
54854;BME280;40747;49.480;8.658;2023-07-31T04:31:51;100158.25;;;18.25;76.00
54854;BME280;40747;49.480;8.658;2023-07-31T04:34:17;100147.81;;;18.22;75.99
54854;BME280;40747;49.480;8.658;2023-07-31T04:36:42;100151.78;;;18.29;76.22
54854;BME280;40747;49.480;8.658;2023-07-31T04:39:07;100154.50;;;18.14;76.56
54854;BME280;40747;49.480;8.658;2023-07-31T04:41:33;100157.09;;;18.16;77.78
54854;BME280;40747;49.480;8.658;2023-07-31T04:43:58;100145.19;;;18.07;76.91
54854;BME280;40747;49.480;8.658;2023-07-31T04:46:23;100144.53;;;18.04;78.01
54854;BME280;40747;49.480;8.658;2023-07-31T04:48:48;100139.00;;;18.07;77.20
54854;BME280;40747;49.480;8.658;2023-07-31T04:51:14;100139.88;;;18.07;77.90
54854;BME280;40747;49.480;8.658;2023-07-31T04:53:39;100135.03;;;17.99;77.09
54854;BME280;40747;49.480;8.658;2023-07-31T04:56:04;100140.06;;;18.04;76.80
54854;BME280;40747;49.480;8.658;2023-07-31T04:58:29;100145.75;;;18.12;76.78
54854;BME280;40747;49.480;8.658;2023-07-31T05:00:55;100136.19;;;18.23;77.10
54854;BME280;40747;49.480;8.658;2023-07-31T05:03:20;100140.88;;;18.19;77.07
54854;BME280;40747;49.480;8.658;2023-07-31T05:05:45;100140.03;;;18.18;78.91
54854;BME280;40747;49.480;8.658;2023-07-31T05:08:11;100144.09;;;18.24;78.08
54854;BME280;40747;49.480;8.658;2023-07-31T05:10:36;100140.06;;;18.31;77.65
54854;BME280;40747;49.480;8.658;2023-07-31T05:13:02;100139.16;;;18.18;76.71
54854;BME280;40747;49.480;8.658;2023-07-31T05:15:28;100143.69;;;18.30;77.24
54854;BME280;40747;49.480;8.658;2023-07-31T05:17:53;100135.25;;;18.24;76.53
54854;BME280;40747;49.480;8.658;2023-07-31T05:20:18;100141.81;;;18.18;76.33
54854;BME280;40747;49.480;8.658;2023-07-31T05:22:43;100138.00;;;18.22;76.95
54854;BME280;40747;49.480;8.658;2023-07-31T05:25:09;100148.06;;;18.31;76.79
54854;BME280;40747;49.480;8.658;2023-07-31T05:27:34;100142.78;;;18.44;76.91
54854;BME280;40747;49.480;8.658;2023-07-31T05:29:59;100138.84;;;18.50;76.46
54854;BME280;40747;49.480;8.658;2023-07-31T05:32:25;100140.66;;;18.49;76.40
54854;BME280;40747;49.480;8.658;2023-07-31T05:34:53;100135.00;;;18.54;76.41
54854;BME280;40747;49.480;8.658;2023-07-31T05:37:18;100131.94;;;18.60;77.63
54854;BME280;40747;49.480;8.658;2023-07-31T05:39:44;100138.53;;;18.55;76.44
54854;BME280;40747;49.480;8.658;2023-07-31T05:42:09;100129.78;;;18.53;78.11
54854;BME280;40747;49.480;8.658;2023-07-31T05:44:34;100135.72;;;18.43;77.20
54854;BME280;40747;49.480;8.658;2023-07-31T05:47:00;100137.00;;;18.38;77.60
54854;BME280;40747;49.480;8.658;2023-07-31T05:49:25;100134.66;;;18.46;78.40
54854;BME280;40747;49.480;8.658;2023-07-31T05:51:50;100143.09;;;18.53;77.10
54854;BME280;40747;49.480;8.658;2023-07-31T05:54:16;100130.00;;;18.49;76.84
54854;BME280;40747;49.480;8.658;2023-07-31T05:56:41;100142.13;;;18.41;76.57
54854;BME280;40747;49.480;8.658;2023-07-31T05:59:08;100137.09;;;18.36;77.91
54854;BME280;40747;49.480;8.658;2023-07-31T06:01:33;100131.09;;;18.32;78.31
54854;BME280;40747;49.480;8.658;2023-07-31T06:03:59;100133.56;;;18.36;77.59
54854;BME280;40747;49.480;8.658;2023-07-31T06:06:24;100132.25;;;18.28;77.54
54854;BME280;40747;49.480;8.658;2023-07-31T06:08:49;100132.47;;;18.25;78.47
54854;BME280;40747;49.480;8.658;2023-07-31T06:11:15;100132.88;;;18.19;77.95
54854;BME280;40747;49.480;8.658;2023-07-31T06:13:40;100138.09;;;18.21;78.92
54854;BME280;40747;49.480;8.658;2023-07-31T06:16:05;100130.72;;;18.11;79.37
54854;BME280;40747;49.480;8.658;2023-07-31T06:18:34;100130.72;;;18.11;77.97
54854;BME280;40747;49.480;8.658;2023-07-31T06:20:59;100129.91;;;18.24;78.72
54854;BME280;40747;49.480;8.658;2023-07-31T06:23:24;100120.25;;;18.36;78.20
54854;BME280;40747;49.480;8.658;2023-07-31T06:25:50;100128.28;;;18.48;78.49
54854;BME280;40747;49.480;8.658;2023-07-31T06:28:15;100121.88;;;18.51;77.67
54854;BME280;40747;49.480;8.658;2023-07-31T06:30:40;100118.97;;;18.41;77.31
54854;BME280;40747;49.480;8.658;2023-07-31T06:33:06;100123.28;;;18.57;77.58
54854;BME280;40747;49.480;8.658;2023-07-31T06:35:31;100115.19;;;18.58;77.65
54854;BME280;40747;49.480;8.658;2023-07-31T06:37:56;100121.50;;;18.70;77.34
54854;BME280;40747;49.480;8.658;2023-07-31T06:40:22;100111.59;;;18.85;79.02
54854;BME280;40747;49.480;8.658;2023-07-31T06:42:48;100108.28;;;18.81;78.80
54854;BME280;40747;49.480;8.658;2023-07-31T06:45:13;100110.59;;;18.73;76.74
54854;BME280;40747;49.480;8.658;2023-07-31T06:47:38;100105.09;;;18.89;78.05
54854;BME280;40747;49.480;8.658;2023-07-31T06:50:04;100112.22;;;18.89;76.95
54854;BME280;40747;49.480;8.658;2023-07-31T06:52:30;100116.44;;;18.93;78.35
54854;BME280;40747;49.480;8.658;2023-07-31T06:55:17;100106.69;;;18.79;76.55
54854;BME280;40747;49.480;8.658;2023-07-31T06:57:43;100110.00;;;18.82;77.85
54854;BME280;40747;49.480;8.658;2023-07-31T07:00:09;100109.22;;;18.80;77.43
54854;BME280;40747;49.480;8.658;2023-07-31T07:02:35;100119.69;;;18.83;77.13
54854;BME280;40747;49.480;8.658;2023-07-31T07:05:00;100110.41;;;18.89;77.14
54854;BME280;40747;49.480;8.658;2023-07-31T07:07:26;100125.72;;;19.00;78.59
54854;BME280;40747;49.480;8.658;2023-07-31T07:09:51;100112.16;;;19.03;78.37
54854;BME280;40747;49.480;8.658;2023-07-31T07:12:17;100115.13;;;19.24;78.84
54854;BME280;40747;49.480;8.658;2023-07-31T07:14:42;100108.94;;;19.37;76.26
54854;BME280;40747;49.480;8.658;2023-07-31T07:17:07;100107.44;;;19.45;77.36
54854;BME280;40747;49.480;8.658;2023-07-31T07:19:33;100110.09;;;19.45;76.37
54854;BME280;40747;49.480;8.658;2023-07-31T07:21:58;100110.25;;;19.31;76.15
54854;BME280;40747;49.480;8.658;2023-07-31T07:24:26;100112.53;;;19.48;76.55
54854;BME280;40747;49.480;8.658;2023-07-31T07:26:51;100118.72;;;19.62;76.83
54854;BME280;40747;49.480;8.658;2023-07-31T07:29:17;100106.84;;;19.66;76.46
54854;BME280;40747;49.480;8.658;2023-07-31T07:31:42;100107.59;;;19.55;75.41
54854;BME280;40747;49.480;8.658;2023-07-31T07:34:08;100110.81;;;19.47;75.89
54854;BME280;40747;49.480;8.658;2023-07-31T07:36:34;100106.66;;;19.56;76.57
54854;BME280;40747;49.480;8.658;2023-07-31T07:38:59;100110.34;;;19.67;76.93
54854;BME280;40747;49.480;8.658;2023-07-31T07:41:24;100103.16;;;19.43;76.70
54854;BME280;40747;49.480;8.658;2023-07-31T07:43:50;100104.44;;;19.37;76.60
54854;BME280;40747;49.480;8.658;2023-07-31T07:46:16;100102.41;;;19.41;76.76
54854;BME280;40747;49.480;8.658;2023-07-31T07:48:41;100103.81;;;19.46;75.55
54854;BME280;40747;49.480;8.658;2023-07-31T07:51:07;100105.16;;;19.52;76.16
54854;BME280;40747;49.480;8.658;2023-07-31T07:53:32;100094.16;;;19.57;75.85
54854;BME280;40747;49.480;8.658;2023-07-31T07:55:57;100108.75;;;19.64;75.69
54854;BME280;40747;49.480;8.658;2023-07-31T07:58:22;100105.34;;;19.75;77.96
54854;BME280;40747;49.480;8.658;2023-07-31T08:00:51;100101.38;;;19.68;76.01
54854;BME280;40747;49.480;8.658;2023-07-31T08:03:17;100099.50;;;19.57;75.00
54854;BME280;40747;49.480;8.658;2023-07-31T08:05:43;100102.13;;;19.70;75.70
54854;BME280;40747;49.480;8.658;2023-07-31T08:08:08;100099.63;;;19.79;75.01
54854;BME280;40747;49.480;8.658;2023-07-31T08:10:33;100104.69;;;19.84;74.57
54854;BME280;40747;49.480;8.658;2023-07-31T08:12:59;100104.41;;;19.63;74.28
54854;BME280;40747;49.480;8.658;2023-07-31T08:15:24;100088.59;;;19.60;74.26
54854;BME280;40747;49.480;8.658;2023-07-31T08:17:49;100093.03;;;19.72;75.57
54854;BME280;40747;49.480;8.658;2023-07-31T08:20:15;100084.63;;;20.03;74.37
54854;BME280;40747;49.480;8.658;2023-07-31T08:22:40;100075.84;;;20.25;74.28
54854;BME280;40747;49.480;8.658;2023-07-31T08:25:06;100063.84;;;20.77;73.86
54854;BME280;40747;49.480;8.658;2023-07-31T08:27:32;100063.88;;;21.00;71.90
54854;BME280;40747;49.480;8.658;2023-07-31T08:29:57;100059.00;;;21.39;70.71
54854;BME280;40747;49.480;8.658;2023-07-31T08:32:23;100052.75;;;21.84;72.07
54854;BME280;40747;49.480;8.658;2023-07-31T08:34:48;100047.66;;;22.14;69.15
54854;BME280;40747;49.480;8.658;2023-07-31T08:37:14;100048.66;;;22.01;68.87
54854;BME280;40747;49.480;8.658;2023-07-31T08:39:39;100045.25;;;21.99;69.02
54854;BME280;40747;49.480;8.658;2023-07-31T08:42:08;100040.75;;;22.00;68.71
54854;BME280;40747;49.480;8.658;2023-07-31T08:44:34;100041.44;;;22.34;67.99
54854;BME280;40747;49.480;8.658;2023-07-31T08:47:00;100033.63;;;22.31;67.26
54854;BME280;40747;49.480;8.658;2023-07-31T08:49:27;100025.41;;;22.23;66.88
54854;BME280;40747;49.480;8.658;2023-07-31T08:51:53;100023.56;;;22.02;67.97
54854;BME280;40747;49.480;8.658;2023-07-31T08:54:19;100022.34;;;21.63;68.66
54854;BME280;40747;49.480;8.658;2023-07-31T08:56:45;100022.69;;;21.47;68.97
54854;BME280;40747;49.480;8.658;2023-07-31T08:59:12;100013.84;;;21.57;68.37
54854;BME280;40747;49.480;8.658;2023-07-31T09:01:43;100016.72;;;21.66;69.43
54854;BME280;40747;49.480;8.658;2023-07-31T09:04:09;100013.19;;;21.76;68.51
54854;BME280;40747;49.480;8.658;2023-07-31T09:06:34;100019.72;;;21.84;69.26
54854;BME280;40747;49.480;8.658;2023-07-31T09:09:01;100016.13;;;21.62;68.43
54854;BME280;40747;49.480;8.658;2023-07-31T09:11:26;100016.38;;;21.59;69.11
54854;BME280;40747;49.480;8.658;2023-07-31T09:13:52;100010.53;;;21.54;68.73
54854;BME280;40747;49.480;8.658;2023-07-31T09:16:18;100008.47;;;21.57;69.22
54854;BME280;40747;49.480;8.658;2023-07-31T09:18:56;100009.50;;;21.77;68.69
54854;BME280;40747;49.480;8.658;2023-07-31T09:21:22;100015.09;;;22.07;69.21
54854;BME280;40747;49.480;8.658;2023-07-31T09:23:49;100020.75;;;22.25;67.97
54854;BME280;40747;49.480;8.658;2023-07-31T09:26:31;100010.63;;;23.02;65.37
54854;BME280;40747;49.480;8.658;2023-07-31T09:28:58;100004.69;;;23.49;64.76
54854;BME280;40747;49.480;8.658;2023-07-31T09:31:38;99999.53;;;23.86;63.86
54854;BME280;40747;49.480;8.658;2023-07-31T09:34:04;99988.19;;;24.32;62.73
54854;BME280;40747;49.480;8.658;2023-07-31T09:36:29;99996.41;;;24.40;60.44
54854;BME280;40747;49.480;8.658;2023-07-31T09:39:01;99994.28;;;24.24;60.26
54854;BME280;40747;49.480;8.658;2023-07-31T09:41:27;99979.13;;;24.90;61.81
54854;BME280;40747;49.480;8.658;2023-07-31T09:43:54;99974.66;;;25.55;58.99
54854;BME280;40747;49.480;8.658;2023-07-31T09:46:20;99948.56;;;25.73;59.47
54854;BME280;40747;49.480;8.658;2023-07-31T09:48:46;99965.50;;;25.83;56.47
54854;BME280;40747;49.480;8.658;2023-07-31T09:51:12;99957.47;;;25.56;58.08
54854;BME280;40747;49.480;8.658;2023-07-31T09:53:37;99963.88;;;25.27;59.83
54854;BME280;40747;49.480;8.658;2023-07-31T09:56:03;99956.94;;;25.24;59.74
54854;BME280;40747;49.480;8.658;2023-07-31T09:58:29;99955.59;;;25.10;62.29
54854;BME280;40747;49.480;8.658;2023-07-31T10:00:57;99964.25;;;24.86;60.44
54854;BME280;40747;49.480;8.658;2023-07-31T10:03:22;99960.91;;;23.97;62.53
54854;BME280;40747;49.480;8.658;2023-07-31T10:05:50;99954.69;;;23.97;61.40
54854;BME280;40747;49.480;8.658;2023-07-31T10:08:18;99962.72;;;23.87;61.51
54854;BME280;40747;49.480;8.658;2023-07-31T10:10:45;99968.63;;;23.51;62.61
54854;BME280;40747;49.480;8.658;2023-07-31T10:13:12;99961.69;;;23.29;63.02
54854;BME280;40747;49.480;8.658;2023-07-31T10:15:38;99959.91;;;23.08;63.20
54854;BME280;40747;49.480;8.658;2023-07-31T10:18:05;99950.25;;;22.96;65.93
54854;BME280;40747;49.480;8.658;2023-07-31T10:20:31;99948.53;;;22.85;65.63
54854;BME280;40747;49.480;8.658;2023-07-31T10:22:57;99946.81;;;22.94;64.17
54854;BME280;40747;49.480;8.658;2023-07-31T10:25:23;99947.38;;;22.57;64.57
54854;BME280;40747;49.480;8.658;2023-07-31T10:27:50;99936.88;;;22.44;64.68
54854;BME280;40747;49.480;8.658;2023-07-31T10:30:17;99936.19;;;22.52;64.55
54854;BME280;40747;49.480;8.658;2023-07-31T10:32:44;99937.44;;;22.69;64.45
54854;BME280;40747;49.480;8.658;2023-07-31T10:35:11;99935.19;;;22.84;65.36
54854;BME280;40747;49.480;8.658;2023-07-31T10:37:41;99941.88;;;22.89;63.52
54854;BME280;40747;49.480;8.658;2023-07-31T10:40:17;99943.25;;;22.84;64.19
54854;BME280;40747;49.480;8.658;2023-07-31T10:42:47;99944.13;;;22.84;64.64
54854;BME280;40747;49.480;8.658;2023-07-31T10:45:23;99932.06;;;22.69;65.29
54854;BME280;40747;49.480;8.658;2023-07-31T10:47:58;99937.34;;;22.90;65.43
54854;BME280;40747;49.480;8.658;2023-07-31T10:50:24;99930.13;;;22.81;64.41
54854;BME280;40747;49.480;8.658;2023-07-31T10:52:51;99927.66;;;22.68;64.65
54854;BME280;40747;49.480;8.658;2023-07-31T10:55:41;99926.56;;;22.70;64.78
54854;BME280;40747;49.480;8.658;2023-07-31T10:58:12;99927.38;;;23.02;65.38
54854;BME280;40747;49.480;8.658;2023-07-31T11:00:39;99937.13;;;23.13;65.17
54854;BME280;40747;49.480;8.658;2023-07-31T11:03:09;99939.50;;;22.96;63.92
54854;BME280;40747;49.480;8.658;2023-07-31T11:06:29;99929.78;;;22.64;64.12
54854;BME280;40747;49.480;8.658;2023-07-31T11:08:32;99937.53;;;22.67;65.06
54854;BME280;40747;49.480;8.658;2023-07-31T11:13:26;99934.84;;;22.98;64.67
54854;BME280;40747;49.480;8.658;2023-07-31T11:15:51;99919.28;;;22.92;64.21
54854;BME280;40747;49.480;8.658;2023-07-31T11:18:16;99917.38;;;22.73;65.50
54854;BME280;40747;49.480;8.658;2023-07-31T11:20:42;99912.06;;;22.83;64.16
54854;BME280;40747;49.480;8.658;2023-07-31T11:23:09;99908.72;;;23.10;64.82
54854;BME280;40747;49.480;8.658;2023-07-31T11:25:35;99900.28;;;23.15;64.74
54854;BME280;40747;49.480;8.658;2023-07-31T11:28:08;99905.25;;;23.29;62.96
54854;BME280;40747;49.480;8.658;2023-07-31T11:30:34;99898.19;;;23.38;63.15
54854;BME280;40747;49.480;8.658;2023-07-31T11:33:05;99896.19;;;23.69;62.83
54854;BME280;40747;49.480;8.658;2023-07-31T11:35:34;99903.97;;;23.53;62.44
54854;BME280;40747;49.480;8.658;2023-07-31T11:38:00;99916.84;;;23.30;63.62
54854;BME280;40747;49.480;8.658;2023-07-31T11:40:26;99918.63;;;23.10;63.23
54854;BME280;40747;49.480;8.658;2023-07-31T11:42:58;99917.13;;;22.86;63.66
54854;BME280;40747;49.480;8.658;2023-07-31T11:45:27;99910.88;;;22.75;64.38
54854;BME280;40747;49.480;8.658;2023-07-31T11:47:54;99901.56;;;22.70;64.96
54854;BME280;40747;49.480;8.658;2023-07-31T11:50:20;99899.41;;;22.64;65.18
54854;BME280;40747;49.480;8.658;2023-07-31T11:52:46;99898.44;;;22.74;66.17
54854;BME280;40747;49.480;8.658;2023-07-31T11:55:13;99898.63;;;22.83;64.34
54854;BME280;40747;49.480;8.658;2023-07-31T11:57:41;99884.94;;;22.96;63.54
54854;BME280;40747;49.480;8.658;2023-07-31T12:00:09;99871.78;;;22.92;64.06
54854;BME280;40747;49.480;8.658;2023-07-31T12:02:36;99867.53;;;22.90;65.20
54854;BME280;40747;49.480;8.658;2023-07-31T12:05:04;99876.88;;;22.96;65.31
54854;BME280;40747;49.480;8.658;2023-07-31T12:07:45;99865.25;;;22.75;65.43
54854;BME280;40747;49.480;8.658;2023-07-31T12:10:11;99877.66;;;22.67;66.59
54854;BME280;40747;49.480;8.658;2023-07-31T12:12:36;99865.53;;;22.82;66.31
54854;BME280;40747;49.480;8.658;2023-07-31T12:15:02;99865.81;;;22.89;66.19
54854;BME280;40747;49.480;8.658;2023-07-31T12:17:27;99861.63;;;23.06;66.09
54854;BME280;40747;49.480;8.658;2023-07-31T12:19:52;99848.34;;;23.04;66.34
54854;BME280;40747;49.480;8.658;2023-07-31T12:22:19;99845.38;;;23.07;65.31
54854;BME280;40747;49.480;8.658;2023-07-31T12:24:46;99846.50;;;23.05;66.11
54854;BME280;40747;49.480;8.658;2023-07-31T12:27:15;99840.72;;;23.10;65.90
54854;BME280;40747;49.480;8.658;2023-07-31T12:29:43;99844.16;;;23.31;66.06
54854;BME280;40747;49.480;8.658;2023-07-31T12:32:22;99838.78;;;23.41;66.42
54854;BME280;40747;49.480;8.658;2023-07-31T12:34:49;99842.59;;;23.38;66.43
54854;BME280;40747;49.480;8.658;2023-07-31T12:37:14;99837.50;;;23.26;64.82
54854;BME280;40747;49.480;8.658;2023-07-31T12:39:40;99836.78;;;23.23;64.96
54854;BME280;40747;49.480;8.658;2023-07-31T12:42:05;99836.75;;;23.14;64.41
54854;BME280;40747;49.480;8.658;2023-07-31T12:44:31;99832.84;;;23.18;64.17
54854;BME280;40747;49.480;8.658;2023-07-31T12:46:56;99822.78;;;23.30;63.98
54854;BME280;40747;49.480;8.658;2023-07-31T12:49:22;99833.81;;;23.17;64.17
54854;BME280;40747;49.480;8.658;2023-07-31T12:51:47;99842.13;;;23.14;63.85
54854;BME280;40747;49.480;8.658;2023-07-31T12:54:12;99830.38;;;22.95;63.18
54854;BME280;40747;49.480;8.658;2023-07-31T12:56:38;99828.28;;;23.08;65.20
54854;BME280;40747;49.480;8.658;2023-07-31T12:59:03;99826.28;;;23.11;64.60